createdAt,value
2022-08-16T00:01:59.913Z,99.90
2022-08-16T00:04:31.236Z,99.90
2022-08-16T00:07:01.709Z,99.90
2022-08-16T00:09:33.566Z,99.90
2022-08-16T00:12:07.050Z,99.90
2022-08-16T00:17:24.398Z,99.90
2022-08-16T00:28:03.874Z,99.90
2022-08-16T00:30:34.743Z,99.90
2022-08-16T00:33:06.287Z,99.90
2022-08-16T00:38:41.488Z,99.90
2022-08-16T00:44:02.538Z,99.90
2022-08-16T00:46:54.087Z,99.90
2022-08-16T00:49:39.747Z,99.70
2022-08-16T00:52:29.214Z,99.50
2022-08-16T00:55:08.355Z,99.10
2022-08-16T00:57:58.593Z,98.70
2022-08-16T01:00:31.166Z,98.70
2022-08-16T01:03:05.405Z,98.80
2022-08-16T01:05:36.003Z,99.00
2022-08-16T01:10:55.400Z,98.60
2022-08-16T01:13:32.801Z,98.50
2022-08-16T01:19:27.727Z,97.50
2022-08-16T01:22:49.483Z,97.80
2022-08-16T01:25:09.347Z,98.00
2022-08-16T01:27:49.614Z,98.40
2022-08-16T01:30:39.839Z,98.50
2022-08-16T01:33:22.595Z,97.90
2022-08-16T01:36:11.640Z,97.40
2022-08-16T01:38:48.964Z,96.40
2022-08-16T01:41:32.635Z,95.70
2022-08-16T01:44:12.598Z,96.30
2022-08-16T02:00:48.921Z,93.60
2022-08-16T02:03:24.361Z,92.90
2022-08-16T02:05:57.373Z,93.30
2022-08-16T02:08:33.002Z,93.40
2022-08-16T02:13:54.973Z,91.80
2022-08-16T02:16:25.703Z,91.50
2022-08-16T02:18:56.204Z,92.50
2022-08-16T02:21:31.289Z,92.20
2022-08-16T02:24:02.474Z,92.20
2022-08-16T02:35:12.891Z,92.20
2022-08-16T02:43:18.631Z,92.30
2022-08-16T02:45:49.974Z,92.20
2022-08-16T02:51:10.777Z,91.70
2022-08-16T02:53:45.962Z,92.30
2022-08-16T02:56:18.154Z,92.50
2022-08-16T02:58:51.460Z,92.00
2022-08-16T03:01:33.795Z,92.00
2022-08-16T03:04:39.224Z,91.70
2022-08-16T03:07:00.352Z,91.30
2022-08-16T03:09:34.791Z,91.10
2022-08-16T03:12:06.549Z,91.70
2022-08-16T03:14:38.130Z,91.40
2022-08-16T03:17:08.692Z,91.50
2022-08-16T03:22:29.109Z,91.00
2022-08-16T03:25:02.462Z,90.10
2022-08-16T03:30:29.839Z,91.10
2022-08-16T03:38:34.977Z,90.70
2022-08-16T03:41:08.872Z,91.30
2022-08-16T03:43:56.710Z,90.20
2022-08-16T03:46:48.448Z,90.50
2022-08-16T03:49:19.455Z,90.70
2022-08-16T03:51:51.915Z,91.10
2022-08-16T03:54:23.412Z,91.00
2022-08-16T03:56:56.642Z,90.80
2022-08-16T03:59:29.355Z,90.50
2022-08-16T04:02:04.225Z,91.20
2022-08-16T04:04:42.422Z,90.90
2022-08-16T04:07:14.136Z,90.60
2022-08-16T04:09:45.334Z,90.80
2022-08-16T04:12:54.661Z,90.70
2022-08-16T04:15:10.843Z,89.40
2022-08-16T04:17:44.668Z,89.60
2022-08-16T04:23:03.565Z,90.60
2022-08-16T04:28:29.336Z,90.30
2022-08-16T04:31:15.367Z,90.40
2022-08-16T04:33:50.573Z,90.40
2022-08-16T04:39:09.200Z,90.20
2022-08-16T04:41:39.655Z,90.10
2022-08-16T04:47:00.862Z,90.00
2022-08-16T04:49:43.626Z,89.90
2022-08-16T04:52:33.936Z,88.90
2022-08-16T04:55:17.841Z,86.40
2022-08-16T05:00:38.260Z,87.00
2022-08-16T05:03:15.417Z,89.00
2022-08-16T05:05:59.614Z,89.50
2022-08-16T05:14:08.376Z,87.80
2022-08-16T05:16:43.324Z,90.00
2022-08-16T05:19:16.464Z,89.70
2022-08-16T05:21:47.079Z,89.40
2022-08-16T05:27:11.093Z,90.30
2022-08-16T05:29:59.314Z,90.10
2022-08-16T05:32:36.631Z,90.10
2022-08-16T05:35:17.584Z,89.60
2022-08-16T05:37:48.317Z,89.70
2022-08-16T05:40:19.932Z,90.10
2022-08-16T05:45:39.418Z,87.60
2022-08-16T05:53:45.017Z,88.60
2022-08-16T05:56:19.428Z,88.80
2022-08-16T05:58:50.161Z,86.60
2022-08-16T06:01:21.644Z,86.80
2022-08-16T06:03:52.282Z,87.60
2022-08-16T06:09:09.031Z,88.40
2022-08-16T06:11:39.661Z,87.40
2022-08-16T06:14:14.164Z,87.90
2022-08-16T06:16:50.558Z,87.50
2022-08-16T06:19:22.373Z,86.90
2022-08-16T06:21:55.224Z,85.60
2022-08-16T06:24:54.216Z,85.70
2022-08-16T06:27:17.437Z,84.50
2022-08-16T06:32:38.360Z,85.40
2022-08-16T06:35:14.003Z,86.20
2022-08-16T06:37:47.537Z,87.60
2022-08-16T06:40:22.033Z,88.00
2022-08-16T06:43:04.603Z,86.40
2022-08-16T06:45:35.678Z,87.10
2022-08-16T06:48:08.896Z,86.80
2022-08-16T06:50:39.388Z,86.50
2022-08-16T06:53:16.065Z,86.70
2022-08-16T06:55:53.740Z,87.90
2022-08-16T06:58:31.586Z,87.10
2022-08-16T07:01:04.082Z,86.80
2022-08-16T07:03:54.970Z,86.40
2022-08-16T07:06:28.301Z,87.20
2022-08-16T07:08:59.625Z,87.40
2022-08-16T07:11:47.564Z,87.20
2022-08-16T07:14:23.814Z,86.80
2022-08-16T07:28:09.361Z,87.40
2022-08-16T07:30:46.373Z,87.00
2022-08-16T07:33:52.683Z,87.80
2022-08-16T07:36:12.205Z,87.90
2022-08-16T07:41:29.466Z,87.50
2022-08-16T07:46:47.211Z,86.90
2022-08-16T07:49:26.669Z,86.80
2022-08-16T07:52:20.166Z,86.80
2022-08-16T07:54:53.233Z,86.30
2022-08-16T07:57:24.515Z,85.30
2022-08-16T07:59:57.382Z,85.10
2022-08-16T08:02:28.162Z,85.80
2022-08-16T08:04:59.251Z,85.80
2022-08-16T08:07:33.808Z,86.40
2022-08-16T08:10:10.927Z,87.90
2022-08-16T08:12:43.761Z,86.80
2022-08-16T08:15:15.326Z,87.60
2022-08-16T08:20:46.707Z,87.60
2022-08-16T08:26:18.231Z,87.70
2022-08-16T08:28:50.976Z,87.50
2022-08-16T08:31:22.829Z,88.40
2022-08-16T08:33:53.246Z,88.10
2022-08-16T08:36:32.962Z,87.70
2022-08-16T08:41:51.921Z,89.30
2022-08-16T08:44:28.690Z,90.00
2022-08-16T08:47:10.937Z,90.10
2022-08-16T08:49:46.389Z,87.80
2022-08-16T08:52:34.273Z,89.90
2022-08-16T08:55:12.869Z,90.40
2022-08-16T08:57:47.303Z,89.90
2022-08-16T09:00:21.516Z,89.40
2022-08-16T09:02:57.927Z,88.80
2022-08-16T09:05:36.006Z,90.00
2022-08-16T09:08:08.974Z,90.60
2022-08-16T09:10:40.761Z,90.10
2022-08-16T09:13:13.465Z,89.00
2022-08-16T09:18:35.735Z,88.80
2022-08-16T09:21:09.682Z,88.90
2022-08-16T09:26:44.865Z,89.90
2022-08-16T09:32:04.034Z,87.60
2022-08-16T09:37:29.490Z,90.50
2022-08-16T09:40:01.921Z,90.70
2022-08-16T09:42:56.620Z,90.60
2022-08-16T09:45:23.761Z,91.10
2022-08-16T09:47:58.367Z,90.70
2022-08-16T09:50:38.268Z,90.50
2022-08-16T09:53:16.528Z,90.70
2022-08-16T09:58:41.743Z,90.30
2022-08-16T10:01:27.454Z,90.20
2022-08-16T10:04:02.774Z,89.90
2022-08-16T10:06:35.479Z,90.60
2022-08-16T10:09:08.295Z,90.50
2022-08-16T10:12:11.591Z,90.50
2022-08-16T10:14:49.691Z,90.90
2022-08-16T10:17:21.119Z,90.60
2022-08-16T10:19:57.405Z,90.50
2022-08-16T10:22:28.287Z,91.20
2022-08-16T10:24:59.922Z,91.10
2022-08-16T10:27:57.043Z,90.80
2022-08-16T10:30:26.094Z,90.70
2022-08-16T10:32:59.220Z,90.50
2022-08-16T10:35:33.124Z,90.80
2022-08-16T10:40:49.649Z,91.00
2022-08-16T10:46:40.012Z,90.90
2022-08-16T10:49:05.113Z,90.90
2022-08-16T10:54:29.216Z,91.00
2022-08-16T10:57:04.323Z,90.60
2022-08-16T10:59:54.426Z,90.60
2022-08-16T11:02:58.461Z,90.10
2022-08-16T11:08:09.853Z,90.80
2022-08-16T11:11:04.985Z,91.10
2022-08-16T11:16:26.428Z,91.60
2022-08-16T11:24:45.028Z,91.70
2022-08-16T11:27:23.507Z,91.90
2022-08-16T11:29:59.191Z,92.00
2022-08-16T11:32:33.666Z,92.00
2022-08-16T11:35:14.870Z,92.20
2022-08-16T11:38:23.538Z,92.40
2022-08-16T11:40:58.915Z,92.50
2022-08-16T11:43:31.182Z,92.60
2022-08-16T11:46:44.794Z,93.10
2022-08-16T11:51:46.418Z,92.70
2022-08-16T11:57:03.704Z,93.10
2022-08-16T11:59:41.583Z,93.30
2022-08-16T12:02:31.908Z,93.60
2022-08-16T12:05:03.471Z,93.60
2022-08-16T12:07:34.017Z,93.80
2022-08-16T12:10:07.148Z,93.60
2022-08-16T12:12:38.276Z,93.60
2022-08-16T12:15:09.229Z,93.90
2022-08-16T12:17:40.943Z,93.80
2022-08-16T12:20:18.795Z,94.20
2022-08-16T12:22:50.328Z,94.20
2022-08-16T12:25:24.695Z,94.30
2022-08-16T12:27:56.720Z,94.50
2022-08-16T12:30:37.791Z,94.50
2022-08-16T12:33:11.746Z,94.60
2022-08-16T12:35:43.955Z,94.90
2022-08-16T12:38:38.643Z,95.00
2022-08-16T12:41:05.123Z,95.10
2022-08-16T12:43:40.385Z,95.00
2022-08-16T12:46:15.850Z,95.00
2022-08-16T12:49:02.139Z,95.30
2022-08-16T12:51:58.976Z,95.30
2022-08-16T12:54:27.575Z,95.30
2022-08-16T12:56:59.323Z,95.20
2022-08-16T12:59:31.174Z,95.20
2022-08-16T13:02:02.817Z,95.20
2022-08-16T13:04:37.606Z,95.40
2022-08-16T13:07:08.925Z,95.60
2022-08-16T13:09:49.888Z,95.70
2022-08-16T13:15:16.695Z,95.60
2022-08-16T13:17:49.194Z,95.50
2022-08-16T13:20:25.121Z,95.80
2022-08-16T13:25:51.040Z,95.80
2022-08-16T13:28:25.312Z,96.00
2022-08-16T13:30:58.255Z,95.90
2022-08-16T13:33:38.909Z,95.90
2022-08-16T13:36:26.127Z,95.80
2022-08-16T13:39:02.796Z,95.90
2022-08-16T13:44:21.231Z,95.80
2022-08-16T13:46:51.954Z,95.70
2022-08-16T13:49:24.493Z,95.70
2022-08-16T13:51:54.811Z,95.60
2022-08-16T13:54:26.461Z,95.90
2022-08-16T13:56:59.030Z,95.90
2022-08-16T13:59:29.787Z,95.80
2022-08-16T14:02:07.663Z,96.00
2022-08-16T14:04:41.777Z,96.00
2022-08-16T14:07:24.520Z,96.10
2022-08-16T14:12:42.454Z,96.20
2022-08-16T14:15:18.024Z,96.10
2022-08-16T14:18:15.149Z,96.40
2022-08-16T14:26:10.726Z,96.50
2022-08-16T14:28:41.498Z,96.70
2022-08-16T14:31:12.811Z,96.70
2022-08-16T14:33:45.792Z,96.80
2022-08-16T14:39:03.574Z,96.80
2022-08-16T14:41:33.905Z,96.80
2022-08-16T14:46:50.710Z,96.80
2022-08-16T14:49:24.222Z,96.90
2022-08-16T14:51:54.737Z,96.90
2022-08-16T14:57:14.923Z,96.80
2022-08-16T14:59:48.046Z,96.60
2022-08-16T15:02:35.041Z,96.80
2022-08-16T15:05:08.109Z,96.90
2022-08-16T15:07:40.442Z,96.80
2022-08-16T15:10:24.029Z,96.80
2022-08-16T15:13:00.382Z,96.80
2022-08-16T15:15:36.100Z,96.70
2022-08-16T15:18:12.111Z,96.80
2022-08-16T15:20:44.253Z,96.80
2022-08-16T15:23:16.823Z,96.80
2022-08-16T15:26:02.627Z,96.70
2022-08-16T15:31:22.813Z,97.10
2022-08-16T15:33:58.073Z,97.30
2022-08-16T15:36:31.739Z,97.20
2022-08-16T15:39:27.933Z,97.20
2022-08-16T15:41:54.328Z,97.40
2022-08-16T15:47:21.801Z,97.50
2022-08-16T15:49:57.603Z,97.50
2022-08-16T15:52:35.053Z,97.70
2022-08-16T15:55:23.899Z,97.70
2022-08-16T16:00:47.576Z,97.50
2022-08-16T16:06:07.488Z,97.70
2022-08-16T16:08:41.467Z,97.80
2022-08-16T16:11:12.197Z,97.90
2022-08-16T16:13:42.661Z,97.90
2022-08-16T16:16:16.705Z,97.90
2022-08-16T16:18:50.648Z,98.00
2022-08-16T16:21:22.822Z,98.20
2022-08-16T16:26:41.924Z,98.20
2022-08-16T16:29:17.530Z,98.40
2022-08-16T16:34:35.601Z,98.20
2022-08-16T16:37:09.432Z,98.30
2022-08-16T16:39:40.776Z,98.20
2022-08-16T16:42:11.333Z,98.20
2022-08-16T16:45:04.992Z,98.30
2022-08-16T16:47:41.433Z,98.50
2022-08-16T16:50:14.946Z,98.40
2022-08-16T16:52:46.862Z,98.40
2022-08-16T16:55:17.905Z,98.30
2022-08-16T17:00:58.833Z,98.50
2022-08-16T17:06:16.799Z,98.40
2022-08-16T17:08:48.460Z,98.30
2022-08-16T17:11:21.942Z,98.30
2022-08-16T17:13:53.024Z,98.30
2022-08-16T17:16:32.929Z,98.30
2022-08-16T17:19:16.682Z,98.30
2022-08-16T17:21:50.415Z,98.60
2022-08-16T17:24:25.777Z,98.50
2022-08-16T17:27:04.235Z,98.50
2022-08-16T17:29:34.947Z,98.30
2022-08-16T17:32:33.625Z,98.50
2022-08-16T17:35:10.299Z,98.60
2022-08-16T17:37:51.799Z,98.40
2022-08-16T17:40:46.033Z,98.40
2022-08-16T17:43:19.416Z,98.30
2022-08-16T17:48:38.562Z,98.50
2022-08-16T17:51:09.514Z,98.40
2022-08-16T17:53:40.284Z,98.50
2022-08-16T17:56:12.461Z,98.40
2022-08-16T17:58:42.921Z,98.50
2022-08-16T18:01:14.139Z,98.50
2022-08-16T18:04:07.410Z,98.50
2022-08-16T18:06:35.726Z,98.50
2022-08-16T18:11:52.580Z,98.40
2022-08-16T18:14:52.253Z,98.60
2022-08-16T18:17:16.432Z,98.50
2022-08-16T18:19:46.825Z,98.30
2022-08-16T18:22:30.568Z,98.60
2022-08-16T18:25:01.426Z,98.30
2022-08-16T18:27:34.677Z,98.20
2022-08-16T18:30:05.104Z,98.20
2022-08-16T18:32:35.480Z,98.30
2022-08-16T18:37:58.209Z,98.40
2022-08-16T18:40:28.684Z,98.60
2022-08-16T18:43:08.265Z,98.60
2022-08-16T18:45:41.355Z,98.60
2022-08-16T18:48:12.834Z,98.50
2022-08-16T18:53:31.370Z,98.40
2022-08-16T18:56:04.426Z,98.30
2022-08-16T18:58:37.649Z,98.40
2022-08-16T19:01:08.113Z,98.40
2022-08-16T19:03:38.532Z,98.50
2022-08-16T19:06:13.664Z,98.30
2022-08-16T19:08:48.438Z,98.20
2022-08-16T19:16:55.997Z,98.30
2022-08-16T19:19:28.434Z,98.30
2022-08-16T19:21:59.541Z,98.60
2022-08-16T19:24:30.450Z,98.70
2022-08-16T19:27:01.710Z,98.80
2022-08-16T19:29:32.827Z,98.70
2022-08-16T19:37:35.576Z,99.10
2022-08-16T19:40:37.255Z,99.00
2022-08-16T19:43:11.596Z,98.90
2022-08-16T19:45:45.916Z,99.00
2022-08-16T19:48:16.762Z,99.20
2022-08-16T19:50:47.230Z,99.20
2022-08-16T19:53:19.621Z,99.00
2022-08-16T19:58:36.634Z,99.00
2022-08-16T20:01:07.271Z,99.00
2022-08-16T20:03:37.617Z,99.00
2022-08-16T20:08:53.944Z,99.10
2022-08-16T20:11:24.348Z,99.00
2022-08-16T20:13:54.678Z,99.20
2022-08-16T20:16:25.178Z,99.20
2022-08-16T20:18:55.518Z,99.20
2022-08-16T20:21:26.452Z,99.20
2022-08-16T20:24:15.777Z,99.20
2022-08-16T20:29:33.136Z,99.40
2022-08-16T20:32:03.792Z,99.30
2022-08-16T20:34:34.408Z,99.20
2022-08-16T20:37:04.888Z,99.20
2022-08-16T20:39:35.447Z,99.40
2022-08-16T20:42:06.121Z,99.30
2022-08-16T20:44:36.472Z,99.30
2022-08-16T20:47:07.618Z,99.30
2022-08-16T20:49:39.423Z,99.30
2022-08-16T20:55:01.621Z,99.20
2022-08-16T20:57:32.063Z,99.30
2022-08-16T21:00:02.439Z,99.20
2022-08-16T21:02:32.781Z,99.50
2022-08-16T21:05:05.807Z,99.20
2022-08-16T21:07:36.265Z,99.10
2022-08-16T21:10:09.576Z,99.10
2022-08-16T21:12:49.787Z,99.20
2022-08-16T21:18:07.259Z,99.20
2022-08-16T21:23:24.375Z,99.40
2022-08-16T21:28:43.343Z,99.30
2022-08-16T21:31:15.645Z,99.40
2022-08-16T21:33:55.110Z,99.20
2022-08-16T21:36:35.686Z,99.10
2022-08-16T21:41:54.196Z,99.00
2022-08-16T21:44:24.687Z,99.20
2022-08-16T21:47:08.244Z,99.10
2022-08-16T21:49:40.090Z,99.00
2022-08-16T21:52:25.928Z,99.00
2022-08-16T21:54:59.205Z,99.30
2022-08-16T21:57:35.340Z,99.10
2022-08-16T22:03:05.350Z,99.00
2022-08-16T22:08:24.091Z,99.10
2022-08-16T22:11:07.487Z,99.10
2022-08-16T22:13:40.234Z,99.00
2022-08-16T22:16:13.849Z,99.20
2022-08-16T22:18:44.199Z,99.50
2022-08-16T22:21:23.219Z,99.40
2022-08-16T22:23:57.647Z,99.50
2022-08-16T22:26:34.453Z,99.50
2022-08-16T22:31:59.024Z,99.20
2022-08-16T22:34:29.374Z,99.10
2022-08-16T22:36:59.962Z,99.20
2022-08-16T22:39:30.567Z,99.20
2022-08-16T22:42:01.095Z,99.00
2022-08-16T22:44:31.521Z,98.70
2022-08-16T22:47:02.006Z,98.20
2022-08-16T22:52:36.947Z,97.90
2022-08-16T22:57:58.723Z,98.30
2022-08-16T23:03:20.899Z,98.50
2022-08-16T23:08:45.159Z,98.10
2022-08-16T23:11:23.042Z,98.40
2022-08-16T23:13:56.161Z,98.50
2022-08-16T23:16:33.120Z,98.70
2022-08-16T23:19:06.858Z,99.00
2022-08-16T23:21:39.107Z,99.10
2022-08-16T23:24:10.802Z,99.10
2022-08-16T23:26:45.756Z,99.10
2022-08-16T23:29:24.855Z,99.20
2022-08-16T23:32:00.140Z,99.30
2022-08-16T23:34:31.669Z,99.10
2022-08-16T23:37:02.045Z,98.90
2022-08-16T23:39:32.530Z,98.90
2022-08-16T23:42:03.977Z,98.90
2022-08-16T23:44:55.267Z,98.80
2022-08-16T23:50:12.483Z,98.70
2022-08-16T23:53:06.768Z,98.90
2022-08-16T23:55:50.914Z,99.00
2022-08-16T23:58:23.789Z,99.00
